sensor_id;sensor_type;location;lat;lon;timestamp;P1;durP1;ratioP1;P2;durP2;ratioP2
76236;SDS011;65038;53.200;6.530;2023-05-10T00:00:53;14.57;;;9.73;;
76236;SDS011;65038;53.200;6.530;2023-05-10T00:03:19;17.63;;;10.50;;
76236;SDS011;65038;53.200;6.530;2023-05-10T00:05:45;20.30;;;11.00;;
76236;SDS011;65038;53.200;6.530;2023-05-10T00:08:11;16.63;;;11.02;;
76236;SDS011;65038;53.200;6.530;2023-05-10T00:10:37;19.17;;;10.98;;
76236;SDS011;65038;53.200;6.530;2023-05-10T00:13:03;15.50;;;10.07;;
76236;SDS011;65038;53.200;6.530;2023-05-10T00:15:29;13.73;;;9.45;;
76236;SDS011;65038;53.200;6.530;2023-05-10T00:17:59;17.50;;;10.55;;
76236;SDS011;65038;53.200;6.530;2023-05-10T00:20:25;15.77;;;9.23;;
76236;SDS011;65038;53.200;6.530;2023-05-10T00:22:51;14.00;;;9.10;;
76236;SDS011;65038;53.200;6.530;2023-05-10T00:25:17;12.40;;;8.30;;
76236;SDS011;65038;53.200;6.530;2023-05-10T00:27:43;13.05;;;8.20;;
76236;SDS011;65038;53.200;6.530;2023-05-10T00:30:09;13.10;;;8.38;;
76236;SDS011;65038;53.200;6.530;2023-05-10T00:32:35;11.77;;;7.43;;
76236;SDS011;65038;53.200;6.530;2023-05-10T00:35:01;12.73;;;7.85;;
76236;SDS011;65038;53.200;6.530;2023-05-10T00:37:27;13.52;;;8.02;;
76236;SDS011;65038;53.200;6.530;2023-05-10T00:39:53;13.13;;;8.35;;
76236;SDS011;65038;53.200;6.530;2023-05-10T00:42:19;12.25;;;7.93;;
76236;SDS011;65038;53.200;6.530;2023-05-10T00:44:45;11.45;;;7.97;;
76236;SDS011;65038;53.200;6.530;2023-05-10T00:47:12;12.18;;;7.95;;
76236;SDS011;65038;53.200;6.530;2023-05-10T00:49:38;13.40;;;8.52;;
76236;SDS011;65038;53.200;6.530;2023-05-10T00:52:04;11.90;;;7.70;;
76236;SDS011;65038;53.200;6.530;2023-05-10T00:54:31;10.73;;;7.40;;
76236;SDS011;65038;53.200;6.530;2023-05-10T00:56:57;11.10;;;6.85;;
76236;SDS011;65038;53.200;6.530;2023-05-10T00:59:23;10.85;;;6.78;;
76236;SDS011;65038;53.200;6.530;2023-05-10T01:01:50;11.68;;;6.72;;
76236;SDS011;65038;53.200;6.530;2023-05-10T01:04:16;10.52;;;6.80;;
76236;SDS011;65038;53.200;6.530;2023-05-10T01:06:44;12.35;;;6.97;;
76236;SDS011;65038;53.200;6.530;2023-05-10T01:09:11;12.02;;;7.30;;
76236;SDS011;65038;53.200;6.530;2023-05-10T01:11:37;14.15;;;7.95;;
76236;SDS011;65038;53.200;6.530;2023-05-10T01:14:04;13.25;;;8.07;;
76236;SDS011;65038;53.200;6.530;2023-05-10T01:16:32;13.10;;;7.80;;
76236;SDS011;65038;53.200;6.530;2023-05-10T01:18:59;12.93;;;7.75;;
76236;SDS011;65038;53.200;6.530;2023-05-10T01:34:25;14.15;;;8.23;;
76236;SDS011;65038;53.200;6.530;2023-05-10T01:37:02;13.70;;;8.55;;
76236;SDS011;65038;53.200;6.530;2023-05-10T01:39:45;13.50;;;8.05;;
76236;SDS011;65038;53.200;6.530;2023-05-10T01:42:23;12.82;;;8.00;;
76236;SDS011;65038;53.200;6.530;2023-05-10T01:47:37;14.13;;;8.32;;
76236;SDS011;65038;53.200;6.530;2023-05-10T01:50:04;14.77;;;8.57;;
76236;SDS011;65038;53.200;6.530;2023-05-10T01:52:41;13.85;;;8.60;;
76236;SDS011;65038;53.200;6.530;2023-05-10T01:55:09;15.30;;;9.20;;
76236;SDS011;65038;53.200;6.530;2023-05-10T01:57:37;13.60;;;8.90;;
76236;SDS011;65038;53.200;6.530;2023-05-10T02:00:04;16.58;;;9.32;;
76236;SDS011;65038;53.200;6.530;2023-05-10T02:02:33;13.23;;;8.82;;
76236;SDS011;65038;53.200;6.530;2023-05-10T02:04:59;13.73;;;8.35;;
76236;SDS011;65038;53.200;6.530;2023-05-10T02:07:26;14.20;;;8.77;;
76236;SDS011;65038;53.200;6.530;2023-05-10T02:09:52;13.30;;;8.68;;
76236;SDS011;65038;53.200;6.530;2023-05-10T02:12:19;13.98;;;9.10;;
76236;SDS011;65038;53.200;6.530;2023-05-10T02:14:46;16.10;;;9.90;;
76236;SDS011;65038;53.200;6.530;2023-05-10T02:17:12;13.60;;;9.02;;
76236;SDS011;65038;53.200;6.530;2023-05-10T02:19:40;17.17;;;9.27;;
76236;SDS011;65038;53.200;6.530;2023-05-10T02:22:07;14.70;;;9.02;;
76236;SDS011;65038;53.200;6.530;2023-05-10T02:24:34;13.68;;;8.80;;
76236;SDS011;65038;53.200;6.530;2023-05-10T02:27:00;14.55;;;8.40;;
76236;SDS011;65038;53.200;6.530;2023-05-10T02:29:28;13.48;;;8.45;;
76236;SDS011;65038;53.200;6.530;2023-05-10T02:31:54;13.70;;;8.20;;
76236;SDS011;65038;53.200;6.530;2023-05-10T02:34:24;14.40;;;8.55;;
76236;SDS011;65038;53.200;6.530;2023-05-10T02:36:51;14.32;;;8.65;;
76236;SDS011;65038;53.200;6.530;2023-05-10T02:39:18;15.13;;;8.52;;
76236;SDS011;65038;53.200;6.530;2023-05-10T02:41:45;17.08;;;9.32;;
76236;SDS011;65038;53.200;6.530;2023-05-10T02:44:12;14.75;;;8.90;;
76236;SDS011;65038;53.200;6.530;2023-05-10T02:46:40;15.23;;;9.00;;
76236;SDS011;65038;53.200;6.530;2023-05-10T02:49:06;19.27;;;9.50;;
76236;SDS011;65038;53.200;6.530;2023-05-10T02:51:34;19.42;;;10.27;;
76236;SDS011;65038;53.200;6.530;2023-05-10T02:54:06;17.73;;;9.85;;
76236;SDS011;65038;53.200;6.530;2023-05-10T02:56:34;17.15;;;10.07;;
76236;SDS011;65038;53.200;6.530;2023-05-10T02:59:01;20.67;;;10.38;;
76236;SDS011;65038;53.200;6.530;2023-05-10T03:01:27;21.90;;;11.73;;
76236;SDS011;65038;53.200;6.530;2023-05-10T03:03:53;19.90;;;10.95;;
76236;SDS011;65038;53.200;6.530;2023-05-10T03:06:19;18.33;;;10.48;;
76236;SDS011;65038;53.200;6.530;2023-05-10T03:08:45;19.77;;;11.18;;
76236;SDS011;65038;53.200;6.530;2023-05-10T03:14:02;20.27;;;11.40;;
76236;SDS011;65038;53.200;6.530;2023-05-10T03:16:35;20.75;;;11.93;;
76236;SDS011;65038;53.200;6.530;2023-05-10T03:19:05;21.70;;;12.35;;
76236;SDS011;65038;53.200;6.530;2023-05-10T03:21:32;20.65;;;11.35;;
76236;SDS011;65038;53.200;6.530;2023-05-10T03:23:59;24.63;;;12.32;;
76236;SDS011;65038;53.200;6.530;2023-05-10T03:26:29;21.98;;;12.02;;
76236;SDS011;65038;53.200;6.530;2023-05-10T03:28:55;21.02;;;12.18;;
76236;SDS011;65038;53.200;6.530;2023-05-10T03:31:24;23.75;;;12.40;;
76236;SDS011;65038;53.200;6.530;2023-05-10T03:33:50;21.73;;;12.32;;
76236;SDS011;65038;53.200;6.530;2023-05-10T03:36:16;23.95;;;12.90;;
76236;SDS011;65038;53.200;6.530;2023-05-10T03:38:42;25.52;;;13.35;;
76236;SDS011;65038;53.200;6.530;2023-05-10T03:41:08;27.10;;;13.45;;
76236;SDS011;65038;53.200;6.530;2023-05-10T03:43:35;27.60;;;13.70;;
76236;SDS011;65038;53.200;6.530;2023-05-10T03:46:04;28.73;;;14.48;;
76236;SDS011;65038;53.200;6.530;2023-05-10T03:48:34;28.35;;;14.23;;
76236;SDS011;65038;53.200;6.530;2023-05-10T03:51:00;27.40;;;14.57;;
76236;SDS011;65038;53.200;6.530;2023-05-10T03:53:26;34.15;;;15.48;;
76236;SDS011;65038;53.200;6.530;2023-05-10T03:55:52;34.97;;;15.27;;
76236;SDS011;65038;53.200;6.530;2023-05-10T03:58:18;32.80;;;14.82;;
76236;SDS011;65038;53.200;6.530;2023-05-10T04:00:44;27.63;;;14.00;;
76236;SDS011;65038;53.200;6.530;2023-05-10T04:03:13;30.95;;;14.15;;
76236;SDS011;65038;53.200;6.530;2023-05-10T04:05:39;32.30;;;14.50;;
76236;SDS011;65038;53.200;6.530;2023-05-10T04:08:05;32.40;;;14.50;;
76236;SDS011;65038;53.200;6.530;2023-05-10T04:10:32;29.70;;;13.50;;
76236;SDS011;65038;53.200;6.530;2023-05-10T04:12:58;32.70;;;14.38;;
76236;SDS011;65038;53.200;6.530;2023-05-10T04:15:24;35.40;;;14.65;;
76236;SDS011;65038;53.200;6.530;2023-05-10T04:17:50;34.83;;;14.05;;
76236;SDS011;65038;53.200;6.530;2023-05-10T04:20:16;32.88;;;14.18;;
76236;SDS011;65038;53.200;6.530;2023-05-10T04:22:42;32.58;;;13.63;;
76236;SDS011;65038;53.200;6.530;2023-05-10T04:25:08;19.42;;;10.30;;
76236;SDS011;65038;53.200;6.530;2023-05-10T04:27:34;16.58;;;9.38;;
76236;SDS011;65038;53.200;6.530;2023-05-10T04:30:00;13.80;;;8.43;;
76236;SDS011;65038;53.200;6.530;2023-05-10T04:32:26;12.23;;;7.43;;
76236;SDS011;65038;53.200;6.530;2023-05-10T04:34:53;11.38;;;6.82;;
76236;SDS011;65038;53.200;6.530;2023-05-10T04:37:19;10.50;;;6.47;;
76236;SDS011;65038;53.200;6.530;2023-05-10T04:39:46;9.48;;;5.82;;
76236;SDS011;65038;53.200;6.530;2023-05-10T04:42:12;9.65;;;6.15;;
76236;SDS011;65038;53.200;6.530;2023-05-10T04:44:39;9.50;;;5.80;;
76236;SDS011;65038;53.200;6.530;2023-05-10T04:47:05;10.70;;;6.18;;
76236;SDS011;65038;53.200;6.530;2023-05-10T04:49:31;9.50;;;6.20;;
76236;SDS011;65038;53.200;6.530;2023-05-10T04:51:58;10.68;;;6.68;;
76236;SDS011;65038;53.200;6.530;2023-05-10T04:54:24;11.23;;;6.10;;
76236;SDS011;65038;53.200;6.530;2023-05-10T04:56:50;9.50;;;6.43;;
76236;SDS011;65038;53.200;6.530;2023-05-10T04:59:16;13.25;;;6.80;;
76236;SDS011;65038;53.200;6.530;2023-05-10T05:01:42;11.88;;;7.10;;
76236;SDS011;65038;53.200;6.530;2023-05-10T05:04:08;12.98;;;7.22;;
76236;SDS011;65038;53.200;6.530;2023-05-10T05:06:34;11.13;;;6.97;;
76236;SDS011;65038;53.200;6.530;2023-05-10T05:09:00;10.75;;;6.43;;
76236;SDS011;65038;53.200;6.530;2023-05-10T05:11:26;12.32;;;7.00;;
76236;SDS011;65038;53.200;6.530;2023-05-10T05:13:52;13.95;;;7.15;;
76236;SDS011;65038;53.200;6.530;2023-05-10T05:16:18;12.48;;;6.85;;
76236;SDS011;65038;53.200;6.530;2023-05-10T05:18:44;14.00;;;7.82;;
76236;SDS011;65038;53.200;6.530;2023-05-10T05:21:17;15.20;;;7.47;;
76236;SDS011;65038;53.200;6.530;2023-05-10T05:23:43;12.52;;;7.32;;
76236;SDS011;65038;53.200;6.530;2023-05-10T05:26:09;12.73;;;7.60;;
76236;SDS011;65038;53.200;6.530;2023-05-10T05:28:35;12.45;;;7.13;;
76236;SDS011;65038;53.200;6.530;2023-05-10T05:31:05;12.55;;;6.93;;
76236;SDS011;65038;53.200;6.530;2023-05-10T05:33:32;12.88;;;7.25;;
76236;SDS011;65038;53.200;6.530;2023-05-10T05:36:02;16.77;;;7.65;;
76236;SDS011;65038;53.200;6.530;2023-05-10T05:38:28;13.30;;;6.75;;
76236;SDS011;65038;53.200;6.530;2023-05-10T05:40:54;15.77;;;7.38;;
76236;SDS011;65038;53.200;6.530;2023-05-10T05:43:20;14.95;;;7.32;;
76236;SDS011;65038;53.200;6.530;2023-05-10T05:45:46;11.40;;;6.78;;
76236;SDS011;65038;53.200;6.530;2023-05-10T05:48:12;13.65;;;6.55;;
76236;SDS011;65038;53.200;6.530;2023-05-10T05:50:38;13.30;;;7.47;;
76236;SDS011;65038;53.200;6.530;2023-05-10T05:53:04;15.38;;;7.43;;
76236;SDS011;65038;53.200;6.530;2023-05-10T05:55:30;14.35;;;7.82;;
76236;SDS011;65038;53.200;6.530;2023-05-10T05:57:56;14.05;;;7.85;;
76236;SDS011;65038;53.200;6.530;2023-05-10T06:00:23;18.02;;;8.25;;
76236;SDS011;65038;53.200;6.530;2023-05-10T06:02:49;14.73;;;7.85;;
76236;SDS011;65038;53.200;6.530;2023-05-10T06:05:15;14.10;;;7.25;;
76236;SDS011;65038;53.200;6.530;2023-05-10T06:07:41;12.60;;;6.85;;
76236;SDS011;65038;53.200;6.530;2023-05-10T06:10:07;15.30;;;6.65;;
76236;SDS011;65038;53.200;6.530;2023-05-10T06:12:33;9.38;;;4.80;;
76236;SDS011;65038;53.200;6.530;2023-05-10T06:14:59;8.23;;;3.75;;
76236;SDS011;65038;53.200;6.530;2023-05-10T06:17:26;5.95;;;3.40;;
76236;SDS011;65038;53.200;6.530;2023-05-10T06:19:52;6.57;;;3.17;;
76236;SDS011;65038;53.200;6.530;2023-05-10T06:22:18;4.90;;;2.90;;
76236;SDS011;65038;53.200;6.530;2023-05-10T06:24:44;5.03;;;3.20;;
76236;SDS011;65038;53.200;6.530;2023-05-10T06:27:10;6.97;;;3.42;;
76236;SDS011;65038;53.200;6.530;2023-05-10T06:29:36;10.52;;;5.22;;
76236;SDS011;65038;53.200;6.530;2023-05-10T06:32:02;12.23;;;6.40;;
76236;SDS011;65038;53.200;6.530;2023-05-10T06:34:28;13.63;;;7.60;;
76236;SDS011;65038;53.200;6.530;2023-05-10T06:36:54;14.88;;;8.40;;
76236;SDS011;65038;53.200;6.530;2023-05-10T06:39:20;17.70;;;9.60;;
76236;SDS011;65038;53.200;6.530;2023-05-10T06:41:47;19.05;;;10.27;;
76236;SDS011;65038;53.200;6.530;2023-05-10T06:44:13;22.75;;;11.40;;
76236;SDS011;65038;53.200;6.530;2023-05-10T06:46:39;19.33;;;10.43;;
76236;SDS011;65038;53.200;6.530;2023-05-10T06:49:06;17.48;;;9.85;;
76236;SDS011;65038;53.200;6.530;2023-05-10T06:51:34;18.42;;;9.90;;
76236;SDS011;65038;53.200;6.530;2023-05-10T06:54:02;19.70;;;8.90;;
76236;SDS011;65038;53.200;6.530;2023-05-10T06:56:28;16.38;;;8.32;;
76236;SDS011;65038;53.200;6.530;2023-05-10T06:58:54;15.23;;;7.38;;
76236;SDS011;65038;53.200;6.530;2023-05-10T07:01:20;18.65;;;8.43;;
76236;SDS011;65038;53.200;6.530;2023-05-10T07:03:46;13.60;;;7.03;;
76236;SDS011;65038;53.200;6.530;2023-05-10T07:06:12;13.00;;;6.57;;
76236;SDS011;65038;53.200;6.530;2023-05-10T07:08:38;9.73;;;5.85;;
76236;SDS011;65038;53.200;6.530;2023-05-10T07:11:05;9.95;;;6.00;;
76236;SDS011;65038;53.200;6.530;2023-05-10T07:13:35;8.52;;;5.45;;
76236;SDS011;65038;53.200;6.530;2023-05-10T07:16:01;8.18;;;5.20;;
76236;SDS011;65038;53.200;6.530;2023-05-10T07:18:27;9.38;;;5.15;;
76236;SDS011;65038;53.200;6.530;2023-05-10T07:20:54;7.75;;;4.85;;
76236;SDS011;65038;53.200;6.530;2023-05-10T07:23:20;7.43;;;4.82;;
76236;SDS011;65038;53.200;6.530;2023-05-10T07:25:46;7.70;;;4.70;;
76236;SDS011;65038;53.200;6.530;2023-05-10T07:28:13;7.30;;;4.90;;
76236;SDS011;65038;53.200;6.530;2023-05-10T07:30:39;7.50;;;4.90;;
76236;SDS011;65038;53.200;6.530;2023-05-10T07:33:05;7.90;;;5.25;;
76236;SDS011;65038;53.200;6.530;2023-05-10T07:35:32;9.10;;;5.13;;
76236;SDS011;65038;53.200;6.530;2023-05-10T07:37:58;7.18;;;4.43;;
76236;SDS011;65038;53.200;6.530;2023-05-10T07:40:24;6.72;;;4.07;;
76236;SDS011;65038;53.200;6.530;2023-05-10T07:42:50;5.40;;;3.65;;
76236;SDS011;65038;53.200;6.530;2023-05-10T07:45:17;4.93;;;3.33;;
76236;SDS011;65038;53.200;6.530;2023-05-10T07:47:43;4.95;;;3.55;;
76236;SDS011;65038;53.200;6.530;2023-05-10T07:50:09;4.78;;;3.28;;
76236;SDS011;65038;53.200;6.530;2023-05-10T07:52:35;5.15;;;3.47;;
76236;SDS011;65038;53.200;6.530;2023-05-10T07:55:01;5.45;;;3.70;;
76236;SDS011;65038;53.200;6.530;2023-05-10T07:57:27;5.80;;;3.83;;
76236;SDS011;65038;53.200;6.530;2023-05-10T07:59:53;7.05;;;4.18;;
76236;SDS011;65038;53.200;6.530;2023-05-10T08:02:19;6.03;;;4.10;;
76236;SDS011;65038;53.200;6.530;2023-05-10T08:04:45;6.60;;;4.25;;
76236;SDS011;65038;53.200;6.530;2023-05-10T08:07:11;6.53;;;4.00;;
76236;SDS011;65038;53.200;6.530;2023-05-10T08:09:37;6.75;;;4.20;;
76236;SDS011;65038;53.200;6.530;2023-05-10T08:12:03;8.15;;;4.20;;
76236;SDS011;65038;53.200;6.530;2023-05-10T08:14:30;8.27;;;4.07;;
76236;SDS011;65038;53.200;6.530;2023-05-10T08:16:56;7.10;;;4.28;;
76236;SDS011;65038;53.200;6.530;2023-05-10T08:19:22;8.07;;;4.63;;
76236;SDS011;65038;53.200;6.530;2023-05-10T08:21:48;7.20;;;4.72;;
76236;SDS011;65038;53.200;6.530;2023-05-10T08:24:14;8.25;;;4.50;;
76236;SDS011;65038;53.200;6.530;2023-05-10T08:26:40;7.20;;;4.72;;
76236;SDS011;65038;53.200;6.530;2023-05-10T08:29:06;7.60;;;4.50;;
76236;SDS011;65038;53.200;6.530;2023-05-10T08:31:33;7.35;;;4.40;;
76236;SDS011;65038;53.200;6.530;2023-05-10T08:33:59;7.95;;;4.25;;
76236;SDS011;65038;53.200;6.530;2023-05-10T08:36:25;8.02;;;3.72;;
76236;SDS011;65038;53.200;6.530;2023-05-10T08:38:51;6.13;;;3.30;;
76236;SDS011;65038;53.200;6.530;2023-05-10T08:41:19;5.72;;;3.45;;
76236;SDS011;65038;53.200;6.530;2023-05-10T08:43:46;6.45;;;4.10;;
76236;SDS011;65038;53.200;6.530;2023-05-10T08:46:15;7.55;;;4.30;;
76236;SDS011;65038;53.200;6.530;2023-05-10T08:48:45;8.18;;;5.43;;
76236;SDS011;65038;53.200;6.530;2023-05-10T08:51:14;8.38;;;5.72;;
76236;SDS011;65038;53.200;6.530;2023-05-10T08:53:41;7.68;;;5.47;;
76236;SDS011;65038;53.200;6.530;2023-05-10T08:56:07;6.93;;;4.75;;
76236;SDS011;65038;53.200;6.530;2023-05-10T08:58:33;8.73;;;5.35;;
76236;SDS011;65038;53.200;6.530;2023-05-10T09:01:00;10.15;;;5.63;;
76236;SDS011;65038;53.200;6.530;2023-05-10T09:03:26;7.82;;;5.00;;
76236;SDS011;65038;53.200;6.530;2023-05-10T09:05:52;7.13;;;4.53;;
76236;SDS011;65038;53.200;6.530;2023-05-10T09:08:20;7.70;;;4.47;;
76236;SDS011;65038;53.200;6.530;2023-05-10T09:10:47;7.72;;;3.95;;
76236;SDS011;65038;53.200;6.530;2023-05-10T09:13:13;9.52;;;4.60;;
76236;SDS011;65038;53.200;6.530;2023-05-10T09:15:40;6.88;;;4.38;;
76236;SDS011;65038;53.200;6.530;2023-05-10T09:18:06;7.05;;;4.43;;
76236;SDS011;65038;53.200;6.530;2023-05-10T09:20:32;6.72;;;4.53;;
76236;SDS011;65038;53.200;6.530;2023-05-10T09:22:58;7.70;;;4.00;;
76236;SDS011;65038;53.200;6.530;2023-05-10T09:25:24;7.38;;;4.07;;
76236;SDS011;65038;53.200;6.530;2023-05-10T09:27:51;7.90;;;4.22;;
76236;SDS011;65038;53.200;6.530;2023-05-10T09:30:24;5.82;;;4.10;;
76236;SDS011;65038;53.200;6.530;2023-05-10T09:32:51;7.03;;;4.30;;
76236;SDS011;65038;53.200;6.530;2023-05-10T09:35:18;7.80;;;4.57;;
76236;SDS011;65038;53.200;6.530;2023-05-10T09:37:45;7.65;;;4.60;;
76236;SDS011;65038;53.200;6.530;2023-05-10T09:40:22;9.27;;;5.28;;
76236;SDS011;65038;53.200;6.530;2023-05-10T09:45:14;8.45;;;5.32;;
76236;SDS011;65038;53.200;6.530;2023-05-10T09:47:40;9.40;;;5.55;;
76236;SDS011;65038;53.200;6.530;2023-05-10T09:50:06;8.75;;;5.30;;
76236;SDS011;65038;53.200;6.530;2023-05-10T09:52:48;8.35;;;5.40;;
76236;SDS011;65038;53.200;6.530;2023-05-10T09:55:15;9.90;;;4.95;;
76236;SDS011;65038;53.200;6.530;2023-05-10T09:57:41;8.18;;;5.00;;
76236;SDS011;65038;53.200;6.530;2023-05-10T10:00:07;8.20;;;4.90;;
76236;SDS011;65038;53.200;6.530;2023-05-10T10:02:35;8.05;;;5.05;;
76236;SDS011;65038;53.200;6.530;2023-05-10T10:05:01;10.25;;;5.47;;
76236;SDS011;65038;53.200;6.530;2023-05-10T10:07:30;7.72;;;4.88;;
76236;SDS011;65038;53.200;6.530;2023-05-10T10:09:57;8.32;;;5.07;;
76236;SDS011;65038;53.200;6.530;2023-05-10T10:12:24;9.07;;;4.90;;
76236;SDS011;65038;53.200;6.530;2023-05-10T10:14:50;7.47;;;4.45;;
76236;SDS011;65038;53.200;6.530;2023-05-10T10:17:17;6.68;;;4.50;;
76236;SDS011;65038;53.200;6.530;2023-05-10T10:19:43;8.77;;;4.63;;
76236;SDS011;65038;53.200;6.530;2023-05-10T10:22:09;6.35;;;3.97;;
76236;SDS011;65038;53.200;6.530;2023-05-10T10:24:38;6.65;;;4.35;;
76236;SDS011;65038;53.200;6.530;2023-05-10T10:27:28;6.95;;;4.38;;
76236;SDS011;65038;53.200;6.530;2023-05-10T10:32:37;7.70;;;4.95;;
76236;SDS011;65038;53.200;6.530;2023-05-10T10:35:03;7.20;;;4.80;;
76236;SDS011;65038;53.200;6.530;2023-05-10T10:37:50;7.85;;;5.07;;
76236;SDS011;65038;53.200;6.530;2023-05-10T10:42:51;6.85;;;4.50;;
76236;SDS011;65038;53.200;6.530;2023-05-10T10:45:18;9.40;;;5.40;;
76236;SDS011;65038;53.200;6.530;2023-05-10T10:47:44;9.10;;;5.00;;
76236;SDS011;65038;53.200;6.530;2023-05-10T10:50:11;10.07;;;5.40;;
76236;SDS011;65038;53.200;6.530;2023-05-10T10:52:44;7.93;;;5.90;;
76236;SDS011;65038;53.200;6.530;2023-05-10T10:55:17;7.65;;;5.43;;
76236;SDS011;65038;53.200;6.530;2023-05-10T10:57:45;9.23;;;5.53;;
76236;SDS011;65038;53.200;6.530;2023-05-10T11:02:43;7.72;;;5.50;;
76236;SDS011;65038;53.200;6.530;2023-05-10T11:05:38;8.90;;;5.53;;
76236;SDS011;65038;53.200;6.530;2023-05-10T11:10:33;8.07;;;5.05;;
76236;SDS011;65038;53.200;6.530;2023-05-10T11:13:03;8.43;;;5.20;;
76236;SDS011;65038;53.200;6.530;2023-05-10T11:17:56;7.70;;;4.93;;
76236;SDS011;65038;53.200;6.530;2023-05-10T11:20:22;8.18;;;5.30;;
76236;SDS011;65038;53.200;6.530;2023-05-10T11:22:54;10.30;;;6.25;;
76236;SDS011;65038;53.200;6.530;2023-05-10T11:25:23;8.65;;;5.80;;
76236;SDS011;65038;53.200;6.530;2023-05-10T11:27:52;10.85;;;6.60;;
76236;SDS011;65038;53.200;6.530;2023-05-10T11:30:18;10.05;;;6.32;;
76236;SDS011;65038;53.200;6.530;2023-05-10T11:32:44;11.13;;;6.63;;
76236;SDS011;65038;53.200;6.530;2023-05-10T11:35:10;11.52;;;6.95;;
76236;SDS011;65038;53.200;6.530;2023-05-10T11:37:38;10.93;;;6.82;;
76236;SDS011;65038;53.200;6.530;2023-05-10T11:40:08;12.35;;;6.65;;
76236;SDS011;65038;53.200;6.530;2023-05-10T11:42:37;10.35;;;6.53;;
76236;SDS011;65038;53.200;6.530;2023-05-10T11:45:04;11.98;;;6.78;;
76236;SDS011;65038;53.200;6.530;2023-05-10T11:47:30;11.95;;;6.82;;
76236;SDS011;65038;53.200;6.530;2023-05-10T11:49:56;9.68;;;5.43;;
76236;SDS011;65038;53.200;6.530;2023-05-10T11:52:22;11.20;;;6.55;;
76236;SDS011;65038;53.200;6.530;2023-05-10T11:54:52;11.10;;;7.10;;
76236;SDS011;65038;53.200;6.530;2023-05-10T11:57:18;11.18;;;6.55;;
76236;SDS011;65038;53.200;6.530;2023-05-10T11:59:45;11.50;;;6.68;;
76236;SDS011;65038;53.200;6.530;2023-05-10T12:02:13;11.18;;;6.55;;
76236;SDS011;65038;53.200;6.530;2023-05-10T12:04:39;12.40;;;7.32;;
76236;SDS011;65038;53.200;6.530;2023-05-10T12:07:05;12.63;;;7.10;;
76236;SDS011;65038;53.200;6.530;2023-05-10T12:09:31;11.85;;;7.22;;
76236;SDS011;65038;53.200;6.530;2023-05-10T12:11:57;11.48;;;6.75;;
76236;SDS011;65038;53.200;6.530;2023-05-10T12:14:23;12.48;;;7.25;;
76236;SDS011;65038;53.200;6.530;2023-05-10T12:16:49;14.13;;;7.65;;
76236;SDS011;65038;53.200;6.530;2023-05-10T12:19:19;13.48;;;7.50;;
76236;SDS011;65038;53.200;6.530;2023-05-10T12:21:48;13.23;;;7.03;;
76236;SDS011;65038;53.200;6.530;2023-05-10T12:24:14;12.05;;;7.15;;
76236;SDS011;65038;53.200;6.530;2023-05-10T12:26:45;12.55;;;7.15;;
76236;SDS011;65038;53.200;6.530;2023-05-10T12:29:20;12.75;;;7.45;;
76236;SDS011;65038;53.200;6.530;2023-05-10T12:31:55;12.87;;;7.60;;
76236;SDS011;65038;53.200;6.530;2023-05-10T12:34:26;15.00;;;8.02;;
76236;SDS011;65038;53.200;6.530;2023-05-10T12:36:52;14.73;;;8.27;;
76236;SDS011;65038;53.200;6.530;2023-05-10T12:39:18;14.02;;;7.40;;
76236;SDS011;65038;53.200;6.530;2023-05-10T12:41:45;12.15;;;7.30;;
76236;SDS011;65038;53.200;6.530;2023-05-10T12:44:11;12.18;;;7.13;;
76236;SDS011;65038;53.200;6.530;2023-05-10T12:46:37;11.90;;;6.80;;
76236;SDS011;65038;53.200;6.530;2023-05-10T12:49:03;12.85;;;6.97;;
76236;SDS011;65038;53.200;6.530;2023-05-10T12:51:29;12.15;;;6.97;;
76236;SDS011;65038;53.200;6.530;2023-05-10T12:53:55;11.02;;;7.10;;
76236;SDS011;65038;53.200;6.530;2023-05-10T12:56:21;11.02;;;6.55;;
76236;SDS011;65038;53.200;6.530;2023-05-10T12:58:47;10.95;;;6.70;;
76236;SDS011;65038;53.200;6.530;2023-05-10T13:01:14;9.80;;;6.38;;
76236;SDS011;65038;53.200;6.530;2023-05-10T13:03:40;10.45;;;6.38;;
76236;SDS011;65038;53.200;6.530;2023-05-10T13:06:06;9.35;;;5.90;;
76236;SDS011;65038;53.200;6.530;2023-05-10T13:08:32;11.02;;;6.13;;
76236;SDS011;65038;53.200;6.530;2023-05-10T13:11:01;9.98;;;6.35;;
76236;SDS011;65038;53.200;6.530;2023-05-10T13:13:28;12.77;;;6.78;;
76236;SDS011;65038;53.200;6.530;2023-05-10T13:15:54;10.57;;;6.25;;
76236;SDS011;65038;53.200;6.530;2023-05-10T13:18:20;10.02;;;6.00;;
76236;SDS011;65038;53.200;6.530;2023-05-10T13:20:46;10.15;;;6.45;;
76236;SDS011;65038;53.200;6.530;2023-05-10T13:23:12;11.23;;;6.72;;
76236;SDS011;65038;53.200;6.530;2023-05-10T13:25:38;10.63;;;6.32;;
76236;SDS011;65038;53.200;6.530;2023-05-10T13:28:04;11.35;;;7.13;;
76236;SDS011;65038;53.200;6.530;2023-05-10T13:30:30;10.75;;;6.70;;
76236;SDS011;65038;53.200;6.530;2023-05-10T13:32:56;10.50;;;6.68;;
76236;SDS011;65038;53.200;6.530;2023-05-10T13:35:22;10.82;;;6.80;;
76236;SDS011;65038;53.200;6.530;2023-05-10T13:37:48;10.88;;;7.18;;
76236;SDS011;65038;53.200;6.530;2023-05-10T13:40:14;11.30;;;6.72;;
76236;SDS011;65038;53.200;6.530;2023-05-10T13:42:40;11.57;;;7.20;;
76236;SDS011;65038;53.200;6.530;2023-05-10T13:45:07;12.32;;;7.70;;
76236;SDS011;65038;53.200;6.530;2023-05-10T13:47:33;11.60;;;7.28;;
76236;SDS011;65038;53.200;6.530;2023-05-10T13:49:59;10.80;;;6.95;;
76236;SDS011;65038;53.200;6.530;2023-05-10T13:52:25;10.85;;;6.28;;
76236;SDS011;65038;53.200;6.530;2023-05-10T13:54:52;11.18;;;6.53;;
76236;SDS011;65038;53.200;6.530;2023-05-10T13:57:20;12.07;;;6.47;;
76236;SDS011;65038;53.200;6.530;2023-05-10T13:59:46;11.85;;;7.32;;
76236;SDS011;65038;53.200;6.530;2023-05-10T14:05:22;12.10;;;7.53;;
76236;SDS011;65038;53.200;6.530;2023-05-10T14:07:49;11.10;;;6.72;;
76236;SDS011;65038;53.200;6.530;2023-05-10T14:10:15;11.13;;;6.75;;
76236;SDS011;65038;53.200;6.530;2023-05-10T14:12:42;13.02;;;7.57;;
76236;SDS011;65038;53.200;6.530;2023-05-10T14:15:08;12.15;;;6.88;;
76236;SDS011;65038;53.200;6.530;2023-05-10T14:17:36;11.45;;;6.95;;
76236;SDS011;65038;53.200;6.530;2023-05-10T14:20:02;11.35;;;7.00;;
76236;SDS011;65038;53.200;6.530;2023-05-10T14:22:28;13.23;;;6.80;;
76236;SDS011;65038;53.200;6.530;2023-05-10T14:24:54;13.02;;;7.18;;
76236;SDS011;65038;53.200;6.530;2023-05-10T14:27:21;11.20;;;6.93;;
76236;SDS011;65038;53.200;6.530;2023-05-10T14:29:48;12.20;;;7.25;;
76236;SDS011;65038;53.200;6.530;2023-05-10T14:32:13;12.55;;;7.32;;
76236;SDS011;65038;53.200;6.530;2023-05-10T14:34:39;13.25;;;7.65;;
76236;SDS011;65038;53.200;6.530;2023-05-10T14:37:05;12.27;;;7.22;;
76236;SDS011;65038;53.200;6.530;2023-05-10T14:39:32;12.32;;;7.45;;
76236;SDS011;65038;53.200;6.530;2023-05-10T14:41:58;12.60;;;7.72;;
76236;SDS011;65038;53.200;6.530;2023-05-10T14:44:24;11.02;;;7.30;;
76236;SDS011;65038;53.200;6.530;2023-05-10T14:46:50;12.35;;;7.18;;
76236;SDS011;65038;53.200;6.530;2023-05-10T14:49:16;12.38;;;7.40;;
76236;SDS011;65038;53.200;6.530;2023-05-10T14:51:42;10.77;;;6.93;;
76236;SDS011;65038;53.200;6.530;2023-05-10T14:54:09;11.02;;;7.18;;
76236;SDS011;65038;53.200;6.530;2023-05-10T14:56:35;11.40;;;6.85;;
76236;SDS011;65038;53.200;6.530;2023-05-10T14:59:02;10.38;;;6.88;;
76236;SDS011;65038;53.200;6.530;2023-05-10T15:01:29;11.27;;;6.78;;
76236;SDS011;65038;53.200;6.530;2023-05-10T15:03:56;10.65;;;7.32;;
76236;SDS011;65038;53.200;6.530;2023-05-10T15:06:23;12.38;;;7.35;;
76236;SDS011;65038;53.200;6.530;2023-05-10T15:08:52;12.02;;;7.20;;
76236;SDS011;65038;53.200;6.530;2023-05-10T15:11:18;14.65;;;7.70;;